Time;durP1;ratioP1;P1;durP2;ratioP2;P2;SDS_P1;SDS_P2;PMS_P1;PMS_P2;Temp;Humidity;BMP_temperature;BMP_pressure;BME280_temperature;BME280_humidity;BME280_pressure;Samples;Min_cycle;Max_cycle;Signal;HPM_P1;HPM_P2
2022/05/02 00:01:00;;;;;;;35.25;33.10;;;;;;;8.43;100.00;101402.97;4993339;28;20042;-84
2022/05/02 00:03:46;;;;;;;39.08;36.92;;;;;;;8.30;100.00;101415.94;4975767;28;20055;-84
2022/05/02 00:06:26;;;;;;;44.42;41.95;;;;;;;7.72;100.00;101418.00;4994988;28;20558;-84
2022/05/02 00:08:59;;;;;;;46.55;43.78;;;;;;;7.62;100.00;101417.34;5008559;28;20058;-85
2022/05/02 00:11:36;;;;;;;44.63;42.03;;;;;;;7.65;100.00;101417.00;5014372;28;20119;-83
2022/05/02 00:14:28;;;;;;;42.10;39.67;;;;;;;7.36;100.00;101415.75;5007356;28;20111;-83
2022/05/02 00:20:31;;;;;;;41.03;38.60;;;;;;;6.93;100.00;101409.00;5014091;28;20045;-84
2022/05/02 00:23:16;;;;;;;41.25;38.85;;;;;;;6.99;100.00;101417.09;5004474;28;20062;-85
2022/05/02 00:25:50;;;;;;;41.10;38.60;;;;;;;7.23;100.00;101420.69;4999039;28;20054;-83
2022/05/02 00:28:24;;;;;;;38.60;36.40;;;;;;;6.91;100.00;101414.44;5001816;28;20108;-84
2022/05/02 00:31:45;;;;;;;40.50;38.10;;;;;;;6.59;100.00;101407.31;5018255;28;20045;-85
2022/05/02 00:34:16;;;;;;;41.60;39.15;;;;;;;6.68;100.00;101413.44;5018589;28;20085;-84
2022/05/02 00:36:51;;;;;;;38.20;35.53;;;;;;;6.32;100.00;101413.69;5012180;28;20050;-83
2022/05/02 00:39:38;;;;;;;38.60;36.00;;;;;;;6.37;100.00;101414.88;5013091;28;20119;-86
2022/05/02 00:42:20;;;;;;;37.80;35.20;;;;;;;6.73;100.00;101414.59;5018436;28;20479;-86
2022/05/02 00:44:51;;;;;;;38.33;35.93;;;;;;;6.51;100.00;101416.06;5010178;28;20088;-84
2022/05/02 00:47:33;;;;;;;37.13;34.60;;;;;;;6.57;100.00;101425.97;5011207;28;20470;-86
2022/05/02 00:50:06;;;;;;;39.70;37.07;;;;;;;6.64;100.00;101420.88;5017922;28;20486;-84
2022/05/02 00:52:43;;;;;;;38.42;36.00;;;;;;;6.59;100.00;101418.69;5011217;28;20050;-84
2022/05/02 00:55:22;;;;;;;37.30;34.80;;;;;;;6.50;100.00;101422.31;5012550;28;20120;-84
2022/05/02 00:57:55;;;;;;;32.95;30.60;;;;;;;6.24;100.00;101424.25;5001399;28;20092;-85
2022/05/02 01:00:27;;;;;;;;;;;;;;;6.40;100.00;101422.47;5018182;28;20050;-83
2022/05/02 01:03:04;;;;;;;41.35;39.05;;;;;;;6.28;100.00;101428.19;5018058;28;19983;-84
2022/05/02 01:08:37;;;;;;;46.78;43.97;;;;;;;6.04;100.00;101413.13;5037421;28;20053;-86
2022/05/02 01:11:33;;;;;;;48.50;45.63;;;;;;;6.17;100.00;101419.59;5037603;28;20057;-84
2022/05/02 01:14:08;;;;;;;42.42;40.03;;;;;;;5.66;100.00;101416.06;5037064;28;20042;-84
2022/05/02 01:16:36;;;;;;;37.47;34.92;;;;;;;5.72;100.00;101414.59;5037381;28;20072;-85
2022/05/02 01:22:35;;;;;;;42.30;39.38;;;;;;;5.52;100.00;101421.88;5025129;28;20480;-84
2022/05/02 01:25:09;;;;;;;41.10;38.25;;;;;;;5.49;100.00;101415.13;5035342;28;20049;-85
2022/05/02 01:27:38;;;;;;;43.47;40.92;;;;;;;5.58;100.00;101417.81;5036378;28;20045;-86
2022/05/02 01:30:06;;;;;;;36.60;34.50;;;;;;;5.58;100.00;101413.38;5021079;28;20473;-84
2022/05/02 01:32:46;;;;;;;45.83;43.20;;;;;;;5.16;100.00;101400.09;5031651;28;20053;-84
2022/05/02 01:35:13;;;;;;;39.53;37.03;;;;;;;5.54;100.00;101406.75;5023892;28;20042;-83
2022/05/02 01:37:43;;;;;;;37.78;35.47;;;;;;;5.48;100.00;101400.31;5017811;28;20120;-85
2022/05/02 01:40:11;;;;;;;35.67;33.08;;;;;;;4.53;100.00;101403.66;5020021;28;20050;-83
2022/05/02 01:42:46;;;;;;;35.45;33.05;;;;;;;5.23;100.00;101398.47;5036481;28;20123;-85
2022/05/02 01:45:21;;;;;;;34.10;31.70;;;;;;;5.08;100.00;101400.84;5027771;28;20058;-83
2022/05/02 01:47:58;;;;;;;36.40;33.60;;;;;;;5.16;100.00;101397.44;5025077;28;20486;-84
2022/05/02 01:50:33;;;;;;;37.88;35.28;;;;;;;5.06;100.00;101402.81;5024163;28;20072;-84
2022/05/02 01:53:21;;;;;;;42.47;39.75;;;;;;;4.76;100.00;101393.53;5036633;28;20123;-85
2022/05/02 01:56:07;;;;;;;46.33;43.53;;;;;;;4.89;100.00;101386.03;5031696;28;20112;-85
2022/05/02 01:58:40;;;;;;;41.20;38.40;;;;;;;5.03;100.00;101388.16;5029925;28;20057;-87
2022/05/02 02:01:07;;;;;;;38.15;35.70;;;;;;;5.07;100.00;101385.22;5158166;22;20306;-84
2022/05/02 02:03:48;;;;;;;38.33;35.72;;;;;;;4.69;100.00;101377.50;5050096;28;20118;-84
2022/05/02 02:06:18;;;;;;;37.63;35.20;;;;;;;4.67;100.00;101386.53;5036545;28;20045;-85
2022/05/02 02:08:53;;;;;;;43.55;40.33;;;;;;;4.87;100.00;101387.19;5048283;28;20114;-85
2022/05/02 02:11:40;;;;;;;39.15;36.45;;;;;;;5.02;100.00;101383.00;5055956;28;20534;-85
2022/05/02 02:14:09;;;;;;;42.45;39.72;;;;;;;4.79;100.00;101388.78;5049940;28;20049;-86
2022/05/02 02:16:35;;;;;;;40.38;37.78;;;;;;;4.88;100.00;101386.22;5040564;28;20049;-84
2022/05/02 02:19:04;;;;;;;39.13;36.72;;;;;;;4.74;100.00;101385.75;5049018;28;20107;-85
2022/05/02 02:22:25;;;;;;;35.35;33.05;;;;;;;4.71;100.00;101378.16;5056249;28;20049;-84
2022/05/02 02:25:08;;;;;;;35.80;33.40;;;;;;;4.79;100.00;101382.69;5051932;28;20465;-84
2022/05/02 02:30:53;;;;;;;35.55;33.10;;;;;;;4.73;100.00;101381.47;5054235;28;20390;-83
2022/05/02 02:33:33;;;;;;;39.70;36.90;;;;;;;4.87;100.00;101377.50;5046679;28;20087;-83
2022/05/02 02:36:18;;;;;;;35.72;33.30;;;;;;;4.36;100.00;101377.19;5052342;28;20052;-84
2022/05/02 02:38:52;;;;;;;32.58;30.17;;;;;;;4.50;100.00;101381.09;5042813;28;20107;-84
2022/05/02 02:41:50;;;;;;;32.78;30.25;;;;;;;4.21;100.00;101378.69;5050191;28;20438;-86
2022/05/02 02:44:19;;;;;;;31.42;29.08;;;;;;;4.15;100.00;101378.47;5054023;28;20052;-85
2022/05/02 02:47:00;;;;;;;31.42;28.98;;;;;;;4.36;100.00;101379.00;5051232;28;20049;-83
2022/05/02 02:49:31;;;;;;;31.75;29.55;;;;;;;4.52;100.00;101378.34;5055370;28;20052;-86
2022/05/02 02:52:37;;;;;;;36.78;33.97;;;;;;;4.09;100.00;101366.72;5049568;28;20076;-84
2022/05/02 02:58:27;;;;;;;33.78;31.40;;;;;;;4.40;100.00;101375.09;5042803;28;20147;-85
2022/05/02 03:00:54;;;;;;;35.25;32.88;;;;;;;4.38;100.00;101378.84;5054111;28;20048;-85
2022/05/02 03:03:48;;;;;;;32.47;30.27;;;;;;;4.23;100.00;101376.72;5055083;28;20049;-86
2022/05/02 03:06:14;;;;;;;30.00;27.55;;;;;;;3.79;100.00;101375.72;5054953;28;20045;-85
2022/05/02 03:08:41;;;;;;;29.65;27.45;;;;;;;3.98;100.00;101377.44;5048184;28;20051;-84
2022/05/02 03:11:10;;;;;;;30.33;28.25;;;;;;;4.15;100.00;101378.47;5049491;28;20049;-85
2022/05/02 03:13:38;;;;;;;29.48;27.08;;;;;;;4.02;100.00;101378.78;5043134;28;20488;-85
2022/05/02 03:16:05;;;;;;;28.52;26.30;;;;;;;4.41;100.00;101384.63;5048103;28;20051;-83
2022/05/02 03:18:34;;;;;;;29.35;27.30;;;;;;;4.62;100.00;101386.16;5046308;28;20076;-84
2022/05/02 03:21:00;;;;;;;26.80;24.85;;;;;;;4.28;100.00;101384.16;5047098;28;20041;-84
2022/05/02 03:23:27;;;;;;;28.55;26.30;;;;;;;4.52;100.00;101384.41;5045528;28;20106;-83
2022/05/02 03:26:02;;;;;;;29.20;27.15;;;;;;;4.48;100.00;101390.97;5054004;28;20060;-84
2022/05/02 03:28:31;;;;;;;29.17;27.30;;;;;;;4.65;100.00;101386.66;5054183;28;20049;-86
2022/05/02 03:31:00;;;;;;;28.88;26.98;;;;;;;4.30;100.00;101375.16;5054471;28;20060;-86
2022/05/02 03:33:52;;;;;;;29.48;27.35;;;;;;;4.25;100.00;101377.41;5045443;28;20053;-85
2022/05/02 03:36:21;;;;;;;28.58;26.77;;;;;;;4.39;100.00;101378.72;5049005;28;20053;-83
2022/05/02 03:39:05;;;;;;;29.27;27.27;;;;;;;4.30;100.00;101382.22;5050662;28;20119;-86
2022/05/02 03:42:00;;;;;;;29.38;27.08;;;;;;;4.22;100.00;101382.97;5045811;28;20106;-84
2022/05/02 03:44:34;;;;;;;29.10;27.10;;;;;;;4.01;100.00;101395.53;5054011;28;20056;-85
2022/05/02 03:47:55;;;;;;;28.58;26.52;;;;;;;4.44;100.00;101386.13;5046996;28;20053;-84
2022/05/02 03:50:33;;;;;;;29.77;27.60;;;;;;;4.74;100.00;101388.38;5036941;28;20456;-85
2022/05/02 03:53:08;;;;;;;29.95;27.65;;;;;;;4.90;100.00;101378.97;5042467;28;20049;-85
2022/05/02 03:55:39;;;;;;;30.75;28.38;;;;;;;4.98;100.00;101374.59;5040110;28;20049;-84
2022/05/02 03:58:52;;;;;;;29.50;27.38;;;;;;;4.95;100.00;101366.19;5048300;28;20461;-84
2022/05/02 04:01:19;;;;;;;31.90;29.27;;;;;;;4.80;100.00;101368.53;5041516;28;20064;-85
2022/05/02 04:03:57;;;;;;;30.00;27.65;;;;;;;5.13;100.00;101366.97;5053822;28;20084;-84
2022/05/02 04:06:35;;;;;;;29.20;27.40;;;;;;;5.17;100.00;101364.84;5052589;28;20053;-86
2022/05/02 04:09:02;;;;;;;28.85;26.95;;;;;;;5.20;100.00;101365.38;5046549;28;20037;-84
2022/05/02 04:11:45;;;;;;;29.38;27.58;;;;;;;5.25;100.00;101360.47;5047743;28;20394;-85
2022/05/02 04:14:22;;;;;;;29.08;27.15;;;;;;;5.25;100.00;101357.84;5054147;28;20112;-85
2022/05/02 04:16:53;;;;;;;26.90;25.20;;;;;;;5.24;100.00;101364.09;5046883;28;20417;-84
2022/05/02 04:19:33;;;;;;;27.00;25.05;;;;;;;5.54;100.00;101354.06;5049400;28;20594;-84
2022/05/02 04:22:13;;;;;;;27.63;25.75;;;;;;;5.83;100.00;101358.94;5035055;28;20073;-85
2022/05/02 04:24:52;;;;;;;27.17;25.45;;;;;;;6.02;100.00;101364.97;5052849;28;20110;-84
2022/05/02 04:27:23;;;;;;;26.95;25.13;;;;;;;5.99;100.00;101362.66;5035472;28;20046;-83
2022/05/02 04:30:01;;;;;;;27.02;25.10;;;;;;;6.31;100.00;101356.66;5048356;28;20114;-85
2022/05/02 04:32:28;;;;;;;26.45;24.83;;;;;;;6.21;100.00;101356.78;5055112;28;20048;-84
2022/05/02 04:35:10;;;;;;;27.35;25.75;;;;;;;6.60;100.00;101356.19;5040946;28;20048;-86
2022/05/02 04:37:40;;;;;;;28.80;27.10;;;;;;;6.96;100.00;101364.63;5047435;28;20051;-84
2022/05/02 04:40:17;;;;;;;28.17;26.30;;;;;;;7.15;100.00;101366.06;5034936;28;20045;-86
2022/05/02 04:42:48;;;;;;;28.05;26.27;;;;;;;7.19;100.00;101366.56;5045225;28;20110;-83
2022/05/02 04:45:26;;;;;;;29.50;26.90;;;;;;;7.38;100.00;101374.09;5050973;28;20056;-84
2022/05/02 04:51:33;;;;;;;29.55;27.48;;;;;;;7.88;100.00;101372.97;5050859;28;20079;-86
2022/05/02 04:54:01;;;;;;;28.35;26.58;;;;;;;7.87;100.00;101373.16;5045601;28;20037;-83
2022/05/02 04:56:52;;;;;;;28.25;26.35;;;;;;;8.13;100.00;101362.25;5053355;28;20122;-83
2022/05/02 04:59:33;;;;;;;30.13;28.13;;;;;;;8.29;100.00;101364.81;5046941;28;20041;-85
2022/05/02 05:02:00;;;;;;;30.30;28.50;;;;;;;8.13;100.00;101354.31;5043225;28;20053;-83
2022/05/02 05:04:29;;;;;;;29.67;27.77;;;;;;;8.41;100.00;101363.44;5036987;28;20075;-83
2022/05/02 05:06:57;;;;;;;27.73;26.02;;;;;;;8.42;100.00;101361.63;5053529;28;20057;-85
2022/05/02 05:09:27;;;;;;;28.38;26.67;;;;;;;8.45;100.00;101358.63;5041612;28;20519;-84
2022/05/02 05:12:01;;;;;;;29.23;27.40;;;;;;;8.53;100.00;101363.03;5035816;28;20057;-83
2022/05/02 05:17:45;;;;;;;28.48;26.42;;;;;;;9.40;100.00;101360.75;5048814;28;20182;-84
2022/05/02 05:20:27;;;;;;;27.33;25.67;;;;;;;9.54;100.00;101359.94;5044182;28;20057;-86
2022/05/02 05:23:17;;;;;;;28.33;26.63;;;;;;;9.87;100.00;101354.25;5040649;28;20045;-84
2022/05/02 05:26:01;;;;;;;28.08;26.10;;;;;;;10.00;100.00;101359.69;5040167;28;20060;-85
2022/05/02 05:28:42;;;;;;;27.38;25.65;;;;;;;10.12;100.00;101348.59;5048094;28;20068;-86
2022/05/02 05:31:20;;;;;;;27.50;25.80;;;;;;;10.08;100.00;101350.81;5042670;28;20049;-84
2022/05/02 05:33:52;;;;;;;27.27;25.67;;;;;;;10.40;100.00;101352.19;5043079;28;20195;-84
2022/05/02 05:36:30;;;;;;;28.77;26.77;;;;;;;10.64;100.00;101347.50;5045681;28;20136;-85
2022/05/02 05:39:04;;;;;;;28.40;26.52;;;;;;;10.86;100.00;101348.31;5052698;28;20053;-83
2022/05/02 05:41:53;;;;;;;27.40;25.77;;;;;;;11.02;100.00;101358.69;5049819;28;20052;-86
2022/05/02 05:44:33;;;;;;;28.02;26.17;;;;;;;11.49;100.00;101349.16;5054812;28;20057;-84
2022/05/02 05:47:25;;;;;;;27.40;25.83;;;;;;;11.95;100.00;101356.53;5048791;28;20056;-86
2022/05/02 05:50:03;;;;;;;28.35;26.35;;;;;;;11.94;100.00;101354.91;5049703;28;20099;-85
2022/05/02 05:52:42;;;;;;;28.90;27.10;;;;;;;12.09;100.00;101349.44;5054017;28;20045;-86
2022/05/02 05:55:16;;;;;;;29.38;27.48;;;;;;;11.89;100.00;101349.34;5048706;28;20052;-83
2022/05/02 05:58:12;;;;;;;29.95;28.05;;;;;;;12.61;100.00;101347.88;5057703;28;20041;-85
2022/05/02 06:01:19;;;;;;;29.13;27.33;;;;;;;12.54;100.00;101347.88;5056800;28;20057;-85
2022/05/02 06:04:28;;;;;;;30.02;28.23;;;;;;;12.64;100.00;101347.47;5017452;28;20050;-86
2022/05/02 06:06:56;;;;;;;30.23;28.15;;;;;;;13.22;100.00;101344.16;5016905;28;20457;-85
2022/05/02 06:09:53;;;;;;;34.53;32.17;;;;;;;13.32;100.00;101354.47;5017172;28;20050;-86
2022/05/02 06:12:32;;;;;;;35.20;32.67;;;;;;;13.57;100.00;101351.94;5002552;28;20050;-85
2022/05/02 06:18:30;;;;;;;41.35;39.03;;;;;;;14.12;100.00;101338.94;5005926;28;20053;-85
2022/05/02 06:21:05;;;;;;;55.60;52.42;;;;;;;14.05;100.00;101346.19;5016755;28;20140;-86
2022/05/02 06:23:46;;;;;;;54.72;51.33;;;;;;;14.31;100.00;101342.53;5012791;28;20050;-83
2022/05/02 06:26:24;;;;;;;54.83;51.40;;;;;;;14.44;100.00;101342.47;5011245;28;20056;-83
2022/05/02 06:29:08;;;;;;;67.88;63.60;;;;;;;14.78;100.00;101337.72;5005715;28;20415;-85
2022/05/02 06:31:45;;;;;;;74.10;68.95;;;;;;;15.01;100.00;101342.47;5009946;28;20089;-82
2022/05/02 06:34:21;;;;;;;65.03;61.03;;;;;;;15.26;100.00;101342.41;4997343;28;20133;-83
2022/05/02 06:37:34;;;;;;;70.05;65.60;;;;;;;14.96;100.00;101343.09;5012961;28;20478;-82
2022/05/02 06:40:19;;;;;;;69.95;65.82;;;;;;;15.20;100.00;101340.63;5005324;28;20054;-82
2022/05/02 06:43:04;;;;;;;68.97;64.65;;;;;;;15.47;100.00;101341.16;5006985;28;20048;-83
2022/05/02 06:45:55;;;;;;;70.53;66.00;;;;;;;15.35;100.00;101338.41;5010652;28;20050;-83
2022/05/02 06:48:39;;;;;;;69.15;64.95;;;;;;;15.74;100.00;101341.69;5010067;28;20046;-82
2022/05/02 06:51:20;;;;;;;39.70;37.10;;;;;;;16.17;100.00;101335.34;5001167;28;20054;-82
2022/05/02 06:54:15;;;;;;;38.88;36.78;;;;;;;16.08;100.00;101337.53;5000946;28;20046;-83
2022/05/02 06:56:57;;;;;;;57.20;53.72;;;;;;;16.75;100.00;101331.16;5008314;28;20501;-83
2022/05/02 06:59:41;;;;;;;76.60;71.30;;;;;;;16.77;100.00;101339.84;5003763;28;20054;-85
2022/05/02 07:02:29;;;;;;;72.15;67.05;;;;;;;16.92;100.00;101337.53;5010824;28;20049;-86
2022/05/02 07:05:01;;;;;;;67.15;62.10;;;;;;;16.61;100.00;101338.59;5045513;28;20110;-84
2022/05/02 07:07:53;;;;;;;;;;;;;;;;;;;;;
2022/05/02 07:10:27;;;;;;;70.85;65.57;;;;;;;17.20;100.00;101333.31;5038868;28;20052;-82
2022/05/02 07:13:15;;;;;;;71.38;65.90;;;;;;;17.08;91.75;101333.31;5054917;28;20056;-84
2022/05/02 07:15:52;;;;;;;73.85;68.45;;;;;;;17.25;89.92;101344.97;5047892;28;20080;-84
2022/05/02 07:18:55;;;;;;;74.45;69.35;;;;;;;17.23;88.07;101340.88;5058022;28;20061;-84
2022/05/02 07:21:46;;;;;;;73.53;68.03;;;;;;;17.17;89.49;101338.09;5048941;28;20129;-84
2022/05/02 07:24:34;;;;;;;74.30;68.97;;;;;;;17.13;86.86;101344.97;5058196;28;20452;-84
2022/05/02 07:27:17;;;;;;;67.35;62.75;;;;;;;17.77;90.82;101342.34;5054246;28;20045;-82
2022/05/02 07:30:01;;;;;;;66.50;61.63;;;;;;;17.90;88.87;101340.41;5038187;28;20049;-83
2022/05/02 07:32:33;;;;;;;56.67;53.47;;;;;;;17.68;84.67;101338.34;5053817;28;20052;-82
2022/05/02 07:35:05;;;;;;;62.03;58.22;;;;;;;17.80;85.16;101322.22;5045490;28;20056;-84
2022/05/02 07:37:44;;;;;;;64.28;59.50;;;;;;;17.67;82.83;101328.69;5052524;28;20080;-83
2022/05/02 07:40:17;;;;;;;59.92;55.92;;;;;;;17.74;87.73;101329.34;5037152;28;20049;-82
2022/05/02 07:42:46;;;;;;;69.47;64.30;;;;;;;17.96;81.53;101337.59;5054791;28;20048;-84
2022/05/02 07:45:21;;;;;;;70.38;64.85;;;;;;;17.82;80.57;101330.84;5048239;28;20056;-84
2022/05/02 07:47:54;;;;;;;70.75;65.38;;;;;;;18.07;79.85;101325.16;5054812;28;20053;-83
2022/05/02 07:50:29;;;;;;;70.05;64.85;;;;;;;18.28;77.92;101329.03;5050873;28;20107;-83
2022/05/02 07:53:09;;;;;;;63.83;59.20;;;;;;;17.91;87.00;101326.72;5047010;28;20048;-84
2022/05/02 07:55:46;;;;;;;60.80;56.47;;;;;;;18.16;86.25;101334.47;5049163;28;20037;-84
2022/05/02 07:58:14;;;;;;;60.53;56.10;;;;;;;18.27;84.49;101319.31;5046466;28;20111;-83
2022/05/02 08:00:47;;;;;;;61.13;56.63;;;;;;;18.27;84.55;101313.94;5047725;28;20048;-85
2022/05/02 08:03:16;;;;;;;;;;;;;;;18.45;87.86;101300.25;5046012;28;20049;-84
2022/05/02 08:05:48;;;;;;;56.25;52.70;;;;;;;18.87;83.92;101309.81;5048425;28;20276;-83
2022/05/02 08:08:44;;;;;;;56.20;52.25;;;;;;;18.77;80.84;101307.81;5044756;28;20052;-83
2022/05/02 08:11:35;;;;;;;51.97;48.78;;;;;;;18.97;84.04;101305.41;5048571;28;20063;-84
2022/05/02 08:14:14;;;;;;;57.13;53.13;;;;;;;18.96;75.78;101300.25;5044292;28;20595;-84
2022/05/02 08:16:57;;;;;;;61.45;57.20;;;;;;;18.64;69.37;101298.16;5042870;28;20053;-83
2022/05/02 08:19:53;;;;;;;60.83;56.83;;;;;;;18.81;72.42;101291.97;5039074;28;20049;-84
2022/05/02 08:28:39;;;;;;;65.63;61.05;;;;;;;18.92;66.24;101299.94;5047166;28;20563;-83
2022/05/02 08:31:22;;;;;;;61.85;57.25;;;;;;;18.62;76.05;101300.28;5041030;28;20514;-83
2022/05/02 08:34:10;;;;;;;66.35;61.55;;;;;;;18.87;69.85;101289.09;5037180;28;20059;-82
2022/05/02 08:36:50;;;;;;;66.57;61.78;;;;;;;19.33;62.41;101281.63;5054271;28;20413;-84
2022/05/02 08:39:39;;;;;;;73.13;67.40;;;;;;;19.04;65.59;101291.78;5052034;28;20180;-83
2022/05/02 08:42:46;;;;;;;70.97;65.38;;;;;;;19.08;69.10;101282.13;5047141;28;20053;-83
2022/05/02 08:45:55;;;;;;;68.95;63.53;;;;;;;19.35;56.22;101281.41;4970170;28;20054;-85
2022/05/02 08:49:32;;;;;;;68.75;63.63;;;;;;;19.01;63.24;101268.03;5003152;28;20499;-85
2022/05/02 08:52:30;;;;;;;66.70;61.63;;;;;;;19.13;63.85;101266.06;5046233;28;20045;-83
2022/05/02 08:55:36;;;;;;;63.30;58.45;;;;;;;19.55;61.57;101260.09;4995352;28;20045;-84
2022/05/02 08:58:51;;;;;;;63.13;57.28;;;;;;;20.02;57.44;101248.72;5031251;28;20045;-85
2022/05/02 09:01:53;;;;;;;62.50;56.70;;;;;;;18.99;65.10;101245.94;5055051;28;20044;-83
2022/05/02 09:04:59;;;;;;;59.97;54.75;;;;;;;19.23;64.92;101251.91;5056048;28;20053;-83
2022/05/02 09:08:10;;;;;;;59.63;54.17;;;;;;;18.93;67.15;101244.25;5057181;28;20401;-84
2022/05/02 09:11:04;;;;;;;60.33;54.83;;;;;;;19.01;59.36;101248.38;5047449;28;20049;-83
2022/05/02 09:14:05;;;;;;;60.45;55.95;;;;;;;19.40;51.46;101241.88;5045648;28;20119;-83
2022/05/02 09:17:23;;;;;;;61.25;56.05;;;;;;;19.22;58.16;101228.75;5054246;28;20067;-83
2022/05/02 09:20:16;;;;;;;62.47;57.38;;;;;;;19.46;56.20;101229.28;5045480;28;20206;-82
2022/05/02 09:23:17;;;;;;;72.38;66.43;;;;;;;19.94;55.14;101224.09;5002269;28;20107;-84
2022/05/02 09:26:08;;;;;;;72.93;65.40;;;;;;;19.70;53.21;101210.13;5046528;28;20114;-83
2022/05/02 09:28:52;;;;;;;68.35;62.40;;;;;;;20.22;52.90;101215.75;5046604;28;20052;-81
2022/05/02 09:31:41;;;;;;;70.13;64.07;;;;;;;20.13;52.64;101214.59;5054019;28;20134;-83
2022/05/02 09:34:30;;;;;;;68.95;63.05;;;;;;;19.86;48.75;101218.13;5057179;28;20059;-85
2022/05/02 09:37:15;;;;;;;72.32;66.18;;;;;;;19.85;49.77;101194.94;5045258;28;20489;-84
2022/05/02 09:39:48;;;;;;;71.68;65.60;;;;;;;20.34;51.62;101202.06;5036832;28;20049;-85
2022/05/02 09:52:15;;;;;;;68.43;62.92;;;;;;;20.06;49.00;101193.25;5005927;28;20104;-81
2022/05/02 09:58:17;;;;;;;40.05;37.80;;;;;;;20.22;56.29;101177.97;5048695;28;20106;-83
2022/05/02 10:01:17;;;;;;;37.42;35.17;;;;;;;20.14;53.57;101170.38;5047522;28;20103;-82
2022/05/02 10:04:27;;;;;;;38.35;35.97;;;;;;;20.63;53.88;101174.75;5056141;28;20393;-82
2022/05/02 10:07:22;;;;;;;31.15;29.02;;;;;;;20.73;54.52;101166.72;5016346;28;20048;-83
2022/05/02 10:10:09;;;;;;;33.30;31.00;;;;;;;20.39;54.82;101164.31;5038490;28;20084;-83
2022/05/02 10:13:02;;;;;;;31.27;29.38;;;;;;;20.66;52.71;101161.53;5036350;28;20432;-82
2022/05/02 10:15:58;;;;;;;32.30;29.98;;;;;;;20.65;51.16;101157.22;5039689;28;20103;-81
2022/05/02 10:18:47;;;;;;;32.60;30.52;;;;;;;21.10;52.16;101150.38;5055480;28;20555;-83
2022/05/02 10:21:41;;;;;;;33.95;31.10;;;;;;;21.03;50.65;101149.81;5053916;28;20516;-83
2022/05/02 10:24:40;;;;;;;33.25;30.90;;;;;;;20.88;49.48;101157.84;5049789;28;20099;-82
2022/05/02 10:27:24;;;;;;;30.88;29.05;;;;;;;20.97;47.74;101157.09;5053085;28;20049;-83
2022/05/02 10:30:06;;;;;;;31.52;29.73;;;;;;;21.54;45.74;101149.94;5054517;28;20045;-84
2022/05/02 10:32:52;;;;;;;36.47;34.28;;;;;;;21.67;45.97;101144.03;5046170;28;20136;-83
2022/05/02 10:35:40;;;;;;;31.88;29.95;;;;;;;21.64;47.72;101146.47;5052784;28;20056;-83
2022/05/02 10:38:09;;;;;;;33.30;30.77;;;;;;;21.22;48.34;101142.03;5042401;28;20060;-82
2022/05/02 10:40:45;;;;;;;31.17;29.42;;;;;;;21.23;49.44;101140.97;5048428;28;20114;-84
2022/05/02 10:43:27;;;;;;;33.55;30.75;;;;;;;21.70;47.67;101140.78;5043042;28;20052;-83
2022/05/02 10:45:56;;;;;;;33.25;31.05;;;;;;;21.28;51.56;101146.38;5044183;28;20041;-82
2022/05/02 10:48:41;;;;;;;36.17;33.90;;;;;;;21.42;47.03;101133.19;5045663;28;20049;-81
2022/05/02 10:51:13;;;;;;;31.85;29.77;;;;;;;21.44;45.49;101139.13;5037187;28;20061;-83
2022/05/02 10:53:58;;;;;;;31.20;29.20;;;;;;;20.74;53.15;101135.94;5050725;28;20126;-82
2022/05/02 10:56:35;;;;;;;31.42;29.33;;;;;;;21.23;45.49;101133.66;5054486;28;20084;-82
2022/05/02 10:59:11;;;;;;;31.27;29.48;;;;;;;21.99;46.48;101124.00;5045324;28;20044;-83
2022/05/02 11:02:24;;;;;;;30.67;28.88;;;;;;;21.43;43.12;101129.41;5041367;28;20119;-83
2022/05/02 11:05:04;;;;;;;30.80;29.00;;;;;;;21.38;44.94;101121.28;5002468;28;20141;-84
2022/05/02 11:07:40;;;;;;;30.10;28.30;;;;;;;21.88;41.55;101117.81;5051220;28;20139;-83
2022/05/02 11:10:13;;;;;;;29.80;27.92;;;;;;;22.05;42.49;101113.97;5041631;28;20053;-82
2022/05/02 11:12:48;;;;;;;30.10;28.30;;;;;;;21.73;42.82;101120.50;5047897;28;20073;-82
2022/05/02 11:15:21;;;;;;;29.50;27.80;;;;;;;22.13;42.10;101114.25;5040365;28;20045;-86
2022/05/02 11:20:40;;;;;;;30.45;28.63;;;;;;;21.99;41.38;101102.38;5050253;28;20061;-82
2022/05/02 11:21:07;;;;;;;32.55;30.55;;;;;;;22.25;39.91;101097.75;5040651;28;20053;-84
2022/05/02 11:23:56;;;;;;;30.20;28.35;;;;;;;22.73;41.08;101103.53;5044539;28;20393;-83
2022/05/02 11:26:33;;;;;;;31.38;29.27;;;;;;;22.43;40.98;101100.97;5040985;28;20485;-84
2022/05/02 11:29:24;;;;;;;30.58;28.63;;;;;;;22.46;39.89;101095.78;5041688;28;20183;-84
2022/05/02 11:31:56;;;;;;;32.50;30.40;;;;;;;22.16;40.79;101102.06;5047861;28;20110;-85
2022/05/02 11:34:35;;;;;;;30.10;28.33;;;;;;;22.27;40.34;101086.63;5041659;28;20490;-82
2022/05/02 11:37:06;;;;;;;31.63;29.83;;;;;;;21.76;42.02;101092.94;5040207;28;20048;-82
2022/05/02 11:39:41;;;;;;;30.92;28.50;;;;;;;21.33;42.79;101094.22;5049148;28;20416;-82
2022/05/02 11:42:18;;;;;;;30.05;28.05;;;;;;;20.90;43.75;101093.59;5042331;28;20413;-84
2022/05/02 11:45:10;;;;;;;30.40;28.20;;;;;;;20.92;42.79;101081.47;5043752;28;20048;-81
2022/05/02 11:47:53;;;;;;;29.83;27.92;;;;;;;21.10;43.00;101096.38;5037240;28;20107;-84
2022/05/02 11:50:30;;;;;;;29.50;27.40;;;;;;;21.02;41.38;101077.97;5048280;28;20463;-83
2022/05/02 11:52:59;;;;;;;28.67;26.65;;;;;;;20.86;47.41;101074.44;5044286;28;20063;-84
2022/05/02 11:55:40;;;;;;;32.42;30.23;;;;;;;21.14;45.24;101070.44;5044716;28;20143;-83
2022/05/02 11:58:21;;;;;;;29.25;27.15;;;;;;;21.87;44.31;101063.97;5050977;28;20109;-81
2022/05/02 12:01:02;;;;;;;28.45;26.45;;;;;;;21.38;44.34;101070.78;5047017;28;20043;-83
2022/05/02 12:03:55;;;;;;;28.08;26.13;;;;;;;20.99;47.24;101068.53;5043829;28;20060;-82
2022/05/02 12:06:43;;;;;;;28.52;26.60;;;;;;;20.70;43.85;101062.00;5051756;28;20085;-84
2022/05/02 12:09:19;;;;;;;29.02;27.15;;;;;;;20.36;46.24;101060.47;5048351;28;20041;-85
2022/05/02 12:11:59;;;;;;;29.52;27.58;;;;;;;20.44;46.06;101061.03;5049112;28;20048;-84
2022/05/02 12:14:43;;;;;;;31.73;29.20;;;;;;;20.08;46.02;101066.25;5041262;28;20065;-83
2022/05/02 12:17:31;;;;;;;32.58;30.13;;;;;;;20.42;48.29;101053.19;5051794;28;20424;-84
2022/05/02 12:20:04;;;;;;;30.30;28.50;;;;;;;21.05;46.38;101042.34;5053562;28;20045;-84
2022/05/02 12:22:36;;;;;;;31.10;29.40;;;;;;;20.47;45.98;101047.81;5053193;28;20045;-84
2022/05/02 12:25:07;;;;;;;30.33;28.27;;;;;;;20.63;46.90;101037.13;5053248;28;20045;-82
2022/05/02 12:27:39;;;;;;;29.60;27.60;;;;;;;20.89;44.74;101032.59;5047595;28;20103;-84
2022/05/02 12:30:16;;;;;;;29.10;27.40;;;;;;;21.76;42.52;101028.06;5051669;28;20049;-85
2022/05/02 12:32:50;;;;;;;30.25;28.25;;;;;;;21.38;40.87;101019.44;5050265;28;20098;-81
2022/05/02 12:35:35;;;;;;;29.95;27.75;;;;;;;20.70;43.41;101018.81;5050991;28;20052;-84
2022/05/02 12:38:17;;;;;;;29.98;27.63;;;;;;;20.92;43.76;101015.88;5052939;28;20076;-83
2022/05/02 12:41:01;;;;;;;29.15;27.25;;;;;;;20.95;46.40;101012.63;5044798;28;20041;-81
2022/05/02 12:43:43;;;;;;;29.85;27.75;;;;;;;20.49;45.77;101002.53;5039470;28;20046;-82
2022/05/02 12:46:11;;;;;;;29.20;27.20;;;;;;;20.22;46.21;101010.78;5047546;28;20045;-84
2022/05/02 12:48:42;;;;;;;30.23;28.00;;;;;;;20.33;46.53;101006.22;5046325;28;20045;-81
2022/05/02 12:51:20;;;;;;;30.95;28.75;;;;;;;20.51;47.21;100997.66;5054127;28;20052;-83
2022/05/02 13:00:30;;;;;;;56.60;51.50;;;;;;;21.17;49.04;100991.59;5047624;28;20056;-84
2022/05/02 13:02:33;;;;;;;58.72;52.88;;;;;;;20.04;48.11;100995.06;5033749;28;20067;-81
2022/05/02 13:05:23;;;;;;;57.42;52.42;;;;;;;20.36;50.19;100984.94;5049222;28;20537;-84